CYPT weather

Pelee Island Airport
Pelee Island, Ontario, Canada

Public forecast

Using degrees Celsius for public forecast. Weather courtesy of forecast.io.

Closest aviation weather report (METAR) to Pelee Island Airport

Closest report is Carl R Keller Field, 18.0 nm (33.4 km) SSW. Retrieved 2020/06/05 12:15 UTC (13 minutes ago):

KPCW 051215Z AUTO 24006KT 9SM CLR 22/20 A2985 RMK AO2

Closest aviation forecast (TAF) to Pelee Island Airport

Closest forecast is Windsor Airport, 32.2 nm (59.6 km) NNW. Retrieved 2020/06/05 12:42 UTC (0 seconds ago):

TAF CYQG 051139Z 0512/0612 VRB03KT P6SM FEW200 FM051500 28007KT P6SM FEW070 FM052100 26012KT P6SM BKN070 PROB30 0523/0602 VRB15G25KT 2SM +TSRA BR BKN020 OVC050CB FM060200 30010G20KT P6SM BKN050 FM060500 34010KT P6SM FEW030 BECMG 0606/0608 30005KT RMK FCST BASED ON AUTO OBS NXT FCST BY 051800Z